New Berlin, Illinois
Current Conditions -  °F | °C
As of 1:52 AM on Monday 22 Dec 2014 (Local Time) from KSPI Reporting Station
Overcast Overcast  
Wind Chill: 31°   Ceiling: 4700
Heat Index: 39°   Visibility: 10mi
Dew Point: 30°   Wind: 14mph
Humidity: 70%   Direction: 150°SSE
Pressure: 29.93"   Gusts: NA
Location:  39.73°N, 89.91°W
Report Text: KSPI 220752Z AUTO 15012KT 10SM OVC047 04/M01 A2993 RMK AO2 SLP139 T00391011
Loading
Personal Weather Stations






























Interactive Weather Map New forecast layout! Learn more

10-Day Weather Forecast

Advertisements
Track Severe Weather on mobile